Aviation Digital Data Service (ADDS)

Output produced by TAFs form (0726 UTC 23 September 2017)
found at http://www.aviationweather.gov/adds/tafs/
 
METAR text: RJDT 230700Z 02002KT 9999 FEW020 BKN/// 23/19 Q1015
Conditions at: RJDT (TSUSHIMA AIRPORT, JP) observed 0700 UTC 23 September 2017
Temperature: 23.0°C (73°F)
Dewpoint: 19.0°C (66°F) [RH = 78%]
Pressure (altimeter): 29.97 inches Hg (1015.0 mb)
Winds: from the NNE (20 degrees) at 2 MPH (2 knots; 1.0 m/s)
Visibility: 6 or more miles (10+ km)
Ceiling: at least 12,000 feet AGL
Clouds: few clouds at 2000 feet AGL
Weather: no significant weather observed at this time